createdAt,value
2022-09-06T00:00:37.531Z,57.89
2022-09-06T00:01:37.512Z,57.69
2022-09-06T00:02:37.547Z,57.69
2022-09-06T00:03:37.528Z,57.69
2022-09-06T00:04:37.605Z,57.89
2022-09-06T00:05:37.485Z,57.59
2022-09-06T00:06:37.459Z,57.19
2022-09-06T00:07:37.452Z,57.50
2022-09-06T00:08:37.447Z,58.00
2022-09-06T00:09:37.421Z,57.39
2022-09-06T00:10:37.423Z,57.19
2022-09-06T00:11:37.404Z,57.09
2022-09-06T00:12:37.391Z,56.99
2022-09-06T00:13:37.385Z,57.39
2022-09-06T00:14:37.373Z,57.50
2022-09-06T00:15:37.430Z,57.29
2022-09-06T00:16:37.344Z,57.19
2022-09-06T00:17:37.337Z,57.89
2022-09-06T00:18:37.326Z,58.49
2022-09-06T00:19:37.314Z,59.59
2022-09-06T00:20:37.315Z,60.89
2022-09-06T00:21:37.295Z,61.29
2022-09-06T00:22:37.281Z,61.40
2022-09-06T00:23:37.261Z,61.40
2022-09-06T00:24:37.262Z,62.52
2022-09-06T00:25:37.244Z,62.59
2022-09-06T00:26:37.249Z,62.92
2022-09-06T00:27:37.226Z,63.09
2022-09-06T00:28:37.215Z,63.09
2022-09-06T00:29:37.205Z,63.39
2022-09-06T00:30:37.193Z,63.82
2022-09-06T00:31:37.278Z,64.00
2022-09-06T00:32:37.193Z,65.02
2022-09-06T00:33:37.163Z,65.69
2022-09-06T00:34:37.138Z,67.43
2022-09-06T00:35:37.128Z,70.23
2022-09-06T00:36:37.133Z,72.13
2022-09-06T00:37:37.110Z,74.13
2022-09-06T00:38:37.097Z,75.87
2022-09-06T00:39:37.177Z,77.56
2022-09-06T00:40:37.995Z,78.41
2022-09-06T00:41:37.082Z,77.91
2022-09-06T00:42:37.049Z,79.34
2022-09-06T00:43:37.047Z,79.60
2022-09-06T00:44:37.042Z,80.44
2022-09-06T00:45:37.019Z,80.35
2022-09-06T00:46:37.150Z,80.94
2022-09-06T00:47:37.002Z,80.65
2022-09-06T00:48:36.991Z,81.15
2022-09-06T00:49:36.975Z,80.68
2022-09-06T00:50:36.973Z,81.45
2022-09-06T00:51:36.976Z,81.99
2022-09-06T00:52:36.957Z,81.99
2022-09-06T00:53:36.935Z,81.99
2022-09-06T00:54:36.925Z,81.79
2022-09-06T00:55:36.905Z,81.59
2022-09-06T00:56:36.933Z,81.48
2022-09-06T00:57:36.887Z,81.59
2022-09-06T00:58:36.871Z,82.09
2022-09-06T00:59:36.861Z,82.18
2022-09-06T01:00:36.855Z,81.79
2022-09-06T01:01:36.993Z,81.99
2022-09-06T01:02:36.975Z,81.68
2022-09-06T01:03:36.815Z,82.29
2022-09-06T01:04:36.807Z,82.18
2022-09-06T01:05:36.794Z,82.89
2022-09-06T01:06:36.805Z,82.79
2022-09-06T01:07:36.770Z,82.49
2022-09-06T01:08:36.768Z,83.19
2022-09-06T01:09:36.750Z,83.09
2022-09-06T01:10:36.736Z,82.03
2022-09-06T01:11:36.756Z,81.88
2022-09-06T01:12:36.721Z,81.88
2022-09-06T01:13:36.702Z,82.09
2022-09-06T01:14:36.690Z,82.18
2022-09-06T01:15:36.734Z,82.09
2022-09-06T01:16:36.692Z,82.29
2022-09-06T01:17:36.664Z,82.18
2022-09-06T01:18:36.646Z,82.18
2022-09-06T01:19:36.640Z,83.39
2022-09-06T01:20:36.627Z,83.39
2022-09-06T01:21:36.623Z,83.39
2022-09-06T01:22:36.606Z,83.29
2022-09-06T01:23:36.599Z,83.29
2022-09-06T01:24:36.587Z,83.19
2022-09-06T01:25:36.570Z,83.29
2022-09-06T01:26:36.573Z,83.49
2022-09-06T01:27:36.545Z,83.29
2022-09-06T01:28:36.539Z,83.19
2022-09-06T01:29:36.531Z,83.29
2022-09-06T01:30:36.557Z,82.69
2022-09-06T01:31:36.513Z,82.09
2022-09-06T01:32:36.490Z,81.68
2022-09-06T01:33:36.485Z,81.99
2022-09-06T01:34:36.471Z,82.09
2022-09-06T01:35:36.463Z,83.09
2022-09-06T01:36:45.821Z,82.18
2022-09-06T01:37:37.439Z,81.79
2022-09-06T01:38:36.425Z,81.68
2022-09-06T01:39:36.474Z,82.09
2022-09-06T01:40:36.497Z,81.88
2022-09-06T01:41:36.409Z,81.68
2022-09-06T01:42:36.388Z,82.18
2022-09-06T01:43:36.384Z,82.29
2022-09-06T01:44:36.351Z,81.99
2022-09-06T01:45:36.350Z,81.88
2022-09-06T01:46:36.399Z,81.99
2022-09-06T01:47:36.332Z,81.88
2022-09-06T01:48:36.307Z,82.18
2022-09-06T01:49:36.301Z,81.68
2022-09-06T01:50:36.293Z,81.79
2022-09-06T01:51:36.304Z,81.59
2022-09-06T01:52:36.271Z,82.09
2022-09-06T01:53:36.251Z,82.18
2022-09-06T01:54:36.249Z,83.19
2022-09-06T01:55:36.229Z,82.18
2022-09-06T01:56:36.239Z,82.39
2022-09-06T01:57:36.207Z,82.89
2022-09-06T01:58:36.198Z,83.39
2022-09-06T01:59:36.190Z,83.09
2022-09-06T02:00:36.179Z,82.59
2022-09-06T02:01:36.269Z,83.79
2022-09-06T02:02:36.196Z,83.39
2022-09-06T02:03:36.148Z,83.29
2022-09-06T02:04:36.129Z,83.13
2022-09-06T02:05:36.125Z,84.13
2022-09-06T02:06:36.130Z,83.93
2022-09-06T02:07:36.105Z,84.03
2022-09-06T02:08:36.084Z,84.13
2022-09-06T02:09:36.079Z,83.83
2022-09-06T02:10:36.066Z,84.33
2022-09-06T02:11:36.065Z,84.03
2022-09-06T02:12:36.037Z,84.53
2022-09-06T02:13:36.027Z,85.03
2022-09-06T02:14:36.023Z,84.53
2022-09-06T02:15:36.006Z,84.93
2022-09-06T02:16:36.127Z,84.74
2022-09-06T02:17:35.991Z,84.74
2022-09-06T02:18:35.979Z,84.93
2022-09-06T02:19:35.961Z,84.83
2022-09-06T02:20:35.959Z,84.74
2022-09-06T02:21:35.958Z,85.03
2022-09-06T02:22:35.927Z,85.60
2022-09-06T02:23:35.925Z,85.74
2022-09-06T02:24:35.903Z,85.44
2022-09-06T02:25:35.903Z,85.13
2022-09-06T02:26:35.901Z,85.74
2022-09-06T02:27:35.878Z,86.04
2022-09-06T02:28:35.865Z,85.53
2022-09-06T02:29:35.851Z,85.53
2022-09-06T02:30:35.914Z,85.58
2022-09-06T02:31:35.844Z,85.33
2022-09-06T02:32:35.822Z,85.78
2022-09-06T02:33:35.827Z,85.03
2022-09-06T02:34:35.809Z,85.63
2022-09-06T02:35:35.790Z,85.08
2022-09-06T02:36:35.787Z,85.27
2022-09-06T02:37:35.767Z,85.38
2022-09-06T02:38:35.748Z,85.08
2022-09-06T02:39:35.764Z,85.38
2022-09-06T02:40:35.733Z,84.97
2022-09-06T02:41:35.735Z,85.38
2022-09-06T02:42:35.711Z,85.47
2022-09-06T02:43:35.703Z,85.97
2022-09-06T02:44:35.693Z,85.82
2022-09-06T02:45:35.680Z,85.27
2022-09-06T02:46:35.684Z,85.72
2022-09-06T02:47:35.651Z,85.92
2022-09-06T02:48:35.646Z,85.82
2022-09-06T02:49:35.631Z,85.72
2022-09-06T02:50:35.615Z,86.12
2022-09-06T02:51:35.628Z,87.12
2022-09-06T02:52:35.591Z,86.82
2022-09-06T02:53:35.587Z,86.62
2022-09-06T02:54:35.570Z,87.32
2022-09-06T02:55:35.559Z,87.12
2022-09-06T02:56:35.571Z,87.37
2022-09-06T02:57:35.544Z,87.26
2022-09-06T02:58:35.527Z,87.77
2022-09-06T02:59:35.523Z,86.86
2022-09-06T03:00:35.511Z,86.96
2022-09-06T03:01:35.566Z,86.86
2022-09-06T03:02:35.544Z,87.26
2022-09-06T03:03:35.476Z,86.96
2022-09-06T03:04:35.457Z,86.80
2022-09-06T03:05:35.458Z,87.37
2022-09-06T03:06:35.457Z,86.96
2022-09-06T03:07:35.423Z,87.21
2022-09-06T03:08:35.410Z,87.10
2022-09-06T03:09:35.409Z,86.76
2022-09-06T03:10:35.396Z,87.26
2022-09-06T03:11:35.391Z,86.76
2022-09-06T03:12:35.365Z,86.96
2022-09-06T03:13:35.361Z,86.96
2022-09-06T03:14:35.350Z,86.96
2022-09-06T03:15:35.341Z,86.76
2022-09-06T03:16:35.369Z,86.56
2022-09-06T03:17:35.310Z,87.26
2022-09-06T03:18:35.294Z,87.41
2022-09-06T03:19:35.295Z,86.56
2022-09-06T03:20:37.186Z,86.66
2022-09-06T03:21:35.287Z,86.96
2022-09-06T03:22:35.271Z,86.46
2022-09-06T03:23:35.243Z,86.56
2022-09-06T03:24:35.235Z,85.86
2022-09-06T03:25:35.227Z,85.96
2022-09-06T03:26:35.231Z,86.00
2022-09-06T03:27:35.202Z,85.56
2022-09-06T03:28:35.184Z,85.75
2022-09-06T03:29:35.177Z,85.36
2022-09-06T03:30:35.220Z,85.46
2022-09-06T03:31:35.172Z,85.36
2022-09-06T03:32:35.146Z,85.56
2022-09-06T03:33:35.125Z,85.56
2022-09-06T03:34:35.124Z,85.46
2022-09-06T03:35:35.103Z,85.86
2022-09-06T03:36:35.116Z,86.06
2022-09-06T03:37:35.081Z,85.86
2022-09-06T03:38:35.077Z,86.06
2022-09-06T03:39:35.108Z,85.56
2022-09-06T03:40:35.055Z,85.25
2022-09-06T03:41:35.056Z,86.06
2022-09-06T03:42:35.034Z,85.75
2022-09-06T03:43:35.013Z,85.96
2022-09-06T03:44:35.002Z,85.66
2022-09-06T03:45:35.030Z,86.50
2022-09-06T03:46:34.993Z,85.75
2022-09-06T03:47:34.979Z,86.00
2022-09-06T03:48:34.961Z,86.00
2022-09-06T03:49:34.949Z,86.10
2022-09-06T03:50:34.941Z,86.26
2022-09-06T03:51:34.963Z,86.40
2022-09-06T03:52:34.922Z,86.70
2022-09-06T03:53:34.908Z,86.70
2022-09-06T03:54:34.890Z,87.21
2022-09-06T03:55:34.885Z,86.70
2022-09-06T03:56:34.886Z,87.21
2022-09-06T03:57:34.865Z,87.41
2022-09-06T03:58:34.851Z,87.55
2022-09-06T03:59:34.839Z,87.65
2022-09-06T04:00:34.834Z,88.19
2022-09-06T04:01:34.881Z,87.85
2022-09-06T04:02:34.828Z,87.75
2022-09-06T04:03:34.793Z,88.29
2022-09-06T04:04:34.785Z,88.19
2022-09-06T04:05:34.766Z,88.25
2022-09-06T04:06:34.776Z,87.89
2022-09-06T04:07:34.749Z,87.99
2022-09-06T04:08:34.730Z,88.25
2022-09-06T04:09:34.717Z,88.29
2022-09-06T04:10:34.716Z,87.99
2022-09-06T04:11:34.717Z,87.99
2022-09-06T04:12:34.686Z,87.99
2022-09-06T04:13:34.674Z,87.89
2022-09-06T04:14:34.670Z,87.89
2022-09-06T04:15:34.659Z,88.19
2022-09-06T04:16:34.733Z,88.29
2022-09-06T04:17:34.639Z,88.09
2022-09-06T04:18:34.628Z,87.99
2022-09-06T04:19:34.639Z,88.19
2022-09-06T04:20:34.608Z,88.39
2022-09-06T04:21:34.601Z,87.49
2022-09-06T04:22:34.577Z,87.89
2022-09-06T04:23:39.278Z,87.59
2022-09-06T04:24:35.557Z,88.09
2022-09-06T04:25:34.546Z,87.59
2022-09-06T04:26:34.546Z,87.79
2022-09-06T04:27:34.518Z,88.09
2022-09-06T04:28:34.539Z,87.59
2022-09-06T04:29:34.502Z,87.59
2022-09-06T04:30:34.484Z,87.59
2022-09-06T04:31:34.571Z,88.70
2022-09-06T04:32:34.468Z,87.99
2022-09-06T04:33:34.455Z,88.23
2022-09-06T04:34:34.462Z,87.93
2022-09-06T04:35:34.428Z,87.93
2022-09-06T04:36:34.437Z,88.13
2022-09-06T04:37:34.407Z,88.13
2022-09-06T04:38:34.407Z,88.74
2022-09-06T04:39:34.423Z,89.14
2022-09-06T04:40:34.384Z,88.84
2022-09-06T04:41:34.363Z,89.34
2022-09-06T04:42:34.359Z,89.18
2022-09-06T04:43:34.343Z,89.14
2022-09-06T04:44:34.325Z,89.24
2022-09-06T04:45:34.358Z,89.39
2022-09-06T04:46:34.308Z,88.88
2022-09-06T04:47:34.320Z,88.98
2022-09-06T04:48:34.281Z,88.98
2022-09-06T04:49:34.267Z,88.58
2022-09-06T04:50:34.258Z,87.98
2022-09-06T04:51:34.245Z,88.58
2022-09-06T04:52:34.257Z,88.58
2022-09-06T04:53:34.230Z,88.48
2022-09-06T04:54:34.223Z,88.28
2022-09-06T04:55:34.230Z,88.07
2022-09-06T04:56:34.193Z,87.87
2022-09-06T04:57:34.200Z,87.98
2022-09-06T04:58:34.176Z,87.77
2022-09-06T04:59:34.164Z,88.07
2022-09-06T05:00:34.159Z,87.87
2022-09-06T05:01:34.200Z,88.28
2022-09-06T05:02:34.208Z,88.18
2022-09-06T05:03:34.120Z,88.28
2022-09-06T05:04:34.110Z,88.07
2022-09-06T05:05:34.112Z,88.48
2022-09-06T05:06:34.085Z,88.48
2022-09-06T05:07:34.078Z,88.22
2022-09-06T05:08:34.063Z,87.87
2022-09-06T05:09:34.049Z,88.12
2022-09-06T05:10:34.042Z,88.22
2022-09-06T05:11:34.022Z,88.28
2022-09-06T05:12:34.049Z,87.87
2022-09-06T05:13:34.007Z,88.22
2022-09-06T05:14:33.998Z,87.92
2022-09-06T05:15:33.983Z,88.38
2022-09-06T05:16:34.041Z,88.12
2022-09-06T05:17:33.967Z,88.22
2022-09-06T05:18:33.945Z,87.67
2022-09-06T05:19:33.935Z,87.57
2022-09-06T05:20:33.929Z,87.77
2022-09-06T05:21:33.915Z,86.97
2022-09-06T05:22:33.940Z,87.07
2022-09-06T05:23:33.898Z,86.97
2022-09-06T05:24:33.882Z,87.47
2022-09-06T05:25:33.863Z,87.27
2022-09-06T05:26:33.863Z,87.67
2022-09-06T05:27:33.862Z,87.77
2022-09-06T05:28:33.832Z,87.27
2022-09-06T05:29:33.822Z,87.57
2022-09-06T05:30:33.818Z,87.47
2022-09-06T05:31:33.866Z,87.37
2022-09-06T05:32:33.807Z,87.17
2022-09-06T05:33:33.782Z,86.97
2022-09-06T05:34:33.767Z,87.53
2022-09-06T05:35:33.772Z,87.67
2022-09-06T05:36:33.759Z,87.63
2022-09-06T05:37:33.766Z,87.67
2022-09-06T05:38:34.041Z,87.02
2022-09-06T05:39:33.778Z,87.02
2022-09-06T05:40:33.705Z,86.93
2022-09-06T05:41:33.698Z,87.53
2022-09-06T05:42:33.695Z,87.07
2022-09-06T05:43:33.671Z,86.63
2022-09-06T05:44:33.652Z,86.83
2022-09-06T05:45:33.667Z,87.13
2022-09-06T05:46:33.662Z,86.93
2022-09-06T05:47:33.630Z,86.48
2022-09-06T05:48:37.029Z,86.18
2022-09-06T05:49:33.612Z,86.48
2022-09-06T05:50:33.593Z,86.68
2022-09-06T05:51:33.572Z,86.79
2022-09-06T05:52:33.609Z,86.68
2022-09-06T05:53:33.558Z,86.18
2022-09-06T05:54:33.539Z,86.58
2022-09-06T05:55:33.530Z,85.98
2022-09-06T05:56:33.526Z,85.58
2022-09-06T05:57:33.527Z,85.78
2022-09-06T05:58:33.495Z,85.33
2022-09-06T05:59:33.485Z,85.53
2022-09-06T06:00:33.472Z,85.64
2022-09-06T06:01:33.558Z,85.24
2022-09-06T06:02:33.566Z,85.84
2022-09-06T06:03:33.438Z,85.44
2022-09-06T06:04:33.427Z,85.03
2022-09-06T06:05:33.424Z,84.53
2022-09-06T06:06:33.416Z,85.19
2022-09-06T06:07:33.413Z,84.74
2022-09-06T06:08:33.390Z,84.80
2022-09-06T06:09:33.377Z,84.13
2022-09-06T06:10:37.883Z,83.99
2022-09-06T06:11:34.348Z,84.19
2022-09-06T06:12:33.355Z,84.05
2022-09-06T06:13:33.336Z,84.29
2022-09-06T06:14:33.326Z,82.64
2022-09-06T06:15:33.304Z,83.15
2022-09-06T06:16:33.359Z,82.95
2022-09-06T06:17:33.302Z,83.04
2022-09-06T06:18:33.278Z,82.95
2022-09-06T06:19:33.278Z,82.40
2022-09-06T06:20:33.249Z,82.31
2022-09-06T06:21:33.250Z,82.40
2022-09-06T06:22:33.250Z,81.70
2022-09-06T06:23:33.218Z,80.66
2022-09-06T06:24:33.211Z,81.06
2022-09-06T06:25:33.190Z,80.86
2022-09-06T06:26:33.188Z,80.26
2022-09-06T06:27:33.194Z,79.92
2022-09-06T06:28:33.162Z,79.92
2022-09-06T06:29:33.147Z,78.88
2022-09-06T06:30:33.149Z,79.38
2022-09-06T06:31:33.255Z,78.78
2022-09-06T06:32:33.143Z,78.48
2022-09-06T06:33:33.109Z,78.28
2022-09-06T06:34:33.098Z,77.67
2022-09-06T06:35:35.173Z,78.08
2022-09-06T06:36:34.078Z,77.84
2022-09-06T06:37:33.075Z,78.24
2022-09-06T06:38:33.052Z,77.04
2022-09-06T06:39:33.095Z,76.90
2022-09-06T06:40:33.030Z,77.00
2022-09-06T06:41:33.024Z,77.50
2022-09-06T06:42:33.020Z,76.90
2022-09-06T06:43:32.995Z,75.60
2022-09-06T06:44:32.985Z,76.40
2022-09-06T06:45:33.051Z,76.30
2022-09-06T06:46:32.958Z,76.00
2022-09-06T06:47:32.973Z,75.70
2022-09-06T06:48:32.950Z,75.00
2022-09-06T06:49:32.955Z,76.00
2022-09-06T06:50:33.070Z,76.00
2022-09-06T06:51:33.899Z,75.70
2022-09-06T06:52:32.908Z,75.80
2022-09-06T06:53:32.886Z,75.10
2022-09-06T06:54:32.875Z,75.00
2022-09-06T06:55:32.862Z,75.90
2022-09-06T06:56:32.842Z,76.24
2022-09-06T06:57:32.853Z,75.90
2022-09-06T06:58:32.832Z,76.30
2022-09-06T06:59:32.816Z,75.74
2022-09-06T07:00:32.990Z,76.24
2022-09-06T07:01:32.970Z,76.30
2022-09-06T07:02:32.828Z,75.10
2022-09-06T07:03:32.763Z,76.00
2022-09-06T07:04:32.759Z,76.40
2022-09-06T07:07:35.552Z,75.23
2022-09-06T07:08:32.707Z,74.80
2022-09-06T07:10:34.122Z,75.10
2022-09-06T07:11:32.679Z,74.10
2022-09-06T07:12:32.683Z,74.30
2022-09-06T07:13:32.662Z,74.30
2022-09-06T07:14:32.646Z,74.10
2022-09-06T07:15:32.643Z,74.80
2022-09-06T07:16:32.738Z,75.70
2022-09-06T07:17:32.619Z,74.10
2022-09-06T07:18:32.595Z,74.46
2022-09-06T07:22:32.562Z,74.06
2022-09-06T07:24:33.525Z,75.67
2022-09-06T07:25:32.523Z,73.86
2022-09-06T07:26:32.668Z,74.16
2022-09-06T07:27:48.910Z,73.76
2022-09-06T07:28:33.482Z,72.42
2022-09-06T07:29:32.498Z,72.92
2022-09-06T07:30:32.467Z,73.03
2022-09-06T07:32:33.452Z,72.42
2022-09-06T07:33:32.429Z,71.42
2022-09-06T07:34:32.426Z,71.23
2022-09-06T07:35:32.432Z,71.33
2022-09-06T07:36:32.394Z,71.23
2022-09-06T07:37:32.404Z,71.19
2022-09-06T07:38:32.372Z,70.99
2022-09-06T07:39:32.411Z,71.69
2022-09-06T07:40:32.343Z,71.92
2022-09-06T07:41:32.340Z,71.09
2022-09-06T07:42:36.150Z,70.69
2022-09-06T07:43:32.320Z,70.89
2022-09-06T07:44:32.307Z,71.16
2022-09-06T07:45:33.173Z,70.86
2022-09-06T07:46:32.363Z,70.76
2022-09-06T07:48:01.673Z,69.46
2022-09-06T07:48:33.252Z,69.66
2022-09-06T07:49:34.768Z,70.16
2022-09-06T07:50:48.910Z,70.23
2022-09-06T07:51:33.229Z,69.53
2022-09-06T07:53:33.558Z,69.32
2022-09-06T07:54:33.174Z,68.93
2022-09-06T07:55:32.187Z,68.93
2022-09-06T07:56:32.163Z,69.29
2022-09-06T07:57:32.174Z,69.39
2022-09-06T07:58:32.157Z,69.69
2022-09-06T07:59:32.137Z,68.70
2022-09-06T08:00:32.124Z,68.26
2022-09-06T08:01:32.114Z,68.26
2022-09-06T08:02:32.183Z,67.96
2022-09-06T08:03:32.097Z,67.36
2022-09-06T08:04:32.079Z,67.83
2022-09-06T08:07:40.609Z,67.63
2022-09-06T08:09:33.032Z,67.23
2022-09-06T08:10:32.014Z,65.91
2022-09-06T08:11:31.998Z,65.61
2022-09-06T08:12:32.004Z,65.61
2022-09-06T08:13:31.974Z,65.20
2022-09-06T08:14:31.976Z,65.31
2022-09-06T08:15:33.519Z,65.50
2022-09-06T08:16:32.097Z,64.90
2022-09-06T08:17:31.978Z,64.81
2022-09-06T08:18:31.928Z,65.91
2022-09-06T08:19:31.916Z,65.67
2022-09-06T08:20:31.897Z,64.97
2022-09-06T08:21:31.886Z,64.87
2022-09-06T08:22:31.891Z,64.15
2022-09-06T08:23:31.870Z,65.08
2022-09-06T08:24:31.857Z,64.75
2022-09-06T08:25:31.842Z,65.47
2022-09-06T08:26:31.860Z,64.12
2022-09-06T08:27:31.835Z,64.45
2022-09-06T08:28:31.824Z,64.12
2022-09-06T08:29:31.806Z,63.82
2022-09-06T08:30:31.788Z,63.39
2022-09-06T08:31:31.885Z,63.89
2022-09-06T08:32:31.785Z,63.06
2022-09-06T08:33:31.774Z,62.99
2022-09-06T08:34:31.755Z,61.80
2022-09-06T08:35:31.732Z,62.79
2022-09-06T08:36:31.722Z,63.26
2022-09-06T08:37:31.718Z,62.46
2022-09-06T08:38:31.695Z,62.86
2022-09-06T08:39:31.785Z,62.53
2022-09-06T08:40:31.676Z,61.64
2022-09-06T08:41:31.664Z,62.13
2022-09-06T08:42:31.677Z,61.64
2022-09-06T08:43:31.647Z,61.01
2022-09-06T08:45:32.646Z,60.71
2022-09-06T08:46:31.712Z,60.61
2022-09-06T08:47:31.642Z,60.91
2022-09-06T08:48:31.586Z,60.71
2022-09-06T08:49:31.597Z,60.31
2022-09-06T08:50:31.566Z,60.39
2022-09-06T08:51:33.376Z,60.69
2022-09-06T08:52:31.563Z,60.09
2022-09-06T08:53:31.533Z,59.89
2022-09-06T08:54:31.519Z,60.36
2022-09-06T08:55:31.514Z,58.97
2022-09-06T08:56:31.528Z,58.74
2022-09-06T08:57:31.508Z,59.04
2022-09-06T08:58:31.474Z,58.42
2022-09-06T08:59:31.475Z,58.69
2022-09-06T09:00:31.496Z,57.46
2022-09-06T09:01:31.444Z,56.57
2022-09-06T09:02:31.451Z,56.74
2022-09-06T09:03:31.423Z,55.96
2022-09-06T09:04:31.409Z,56.45
2022-09-06T09:05:31.397Z,56.52
2022-09-06T09:06:31.391Z,56.30
2022-09-06T09:07:31.388Z,55.80
2022-09-06T09:08:31.426Z,54.88
2022-09-06T09:09:31.352Z,54.98
2022-09-06T09:10:31.340Z,54.06
2022-09-06T09:11:31.332Z,54.19
2022-09-06T09:12:31.343Z,54.88
2022-09-06T09:13:31.321Z,55.15
2022-09-06T09:14:31.296Z,54.36
2022-09-06T09:15:31.295Z,52.95
2022-09-06T09:16:31.354Z,53.35
2022-09-06T09:17:31.319Z,53.08
2022-09-06T09:18:31.257Z,52.86
2022-09-06T09:19:31.264Z,53.55
2022-09-06T09:20:31.274Z,53.05
2022-09-06T09:21:31.292Z,51.97
2022-09-06T09:22:31.231Z,52.39
2022-09-06T09:23:31.199Z,53.08
2022-09-06T09:24:31.197Z,53.18
2022-09-06T09:25:31.185Z,52.69
2022-09-06T09:26:31.162Z,52.51
2022-09-06T09:27:31.175Z,54.19
2022-09-06T09:28:31.146Z,52.78
2022-09-06T09:29:35.690Z,51.99
2022-09-06T09:30:48.066Z,51.59
2022-09-06T09:31:32.231Z,52.26
2022-09-06T09:32:31.130Z,51.87
2022-09-06T09:33:31.094Z,51.77
2022-09-06T09:34:31.085Z,51.47
2022-09-06T09:35:31.065Z,53.42
2022-09-06T09:36:31.165Z,52.41
2022-09-06T09:37:47.047Z,50.90
2022-09-06T09:38:32.050Z,49.79
2022-09-06T09:39:31.074Z,50.38
2022-09-06T09:40:31.011Z,50.88
2022-09-06T09:41:31.001Z,51.07
2022-09-06T09:42:31.014Z,50.98
2022-09-06T09:43:31.006Z,49.87
2022-09-06T09:44:30.973Z,49.23
2022-09-06T09:45:30.958Z,48.82
2022-09-06T09:46:30.977Z,47.88
2022-09-06T09:47:30.941Z,47.76
2022-09-06T09:48:30.944Z,47.74
2022-09-06T09:49:30.918Z,45.77
2022-09-06T09:50:30.904Z,45.97
2022-09-06T09:51:30.905Z,45.50
2022-09-06T09:52:30.978Z,46.97
2022-09-06T09:53:30.900Z,47.56
2022-09-06T09:54:30.872Z,45.77
2022-09-06T09:55:30.853Z,45.99
2022-09-06T09:56:30.852Z,47.39
2022-09-06T09:57:30.828Z,47.00
2022-09-06T09:58:30.829Z,45.42
2022-09-06T09:59:30.815Z,46.06
2022-09-06T10:00:30.845Z,45.75
2022-09-06T10:01:30.782Z,45.65
2022-09-06T10:02:30.782Z,45.06
2022-09-06T10:03:31.244Z,45.87
2022-09-06T10:04:46.237Z,45.48
2022-09-06T10:05:31.747Z,45.57
2022-09-06T10:07:31.717Z,46.68
2022-09-06T10:08:30.731Z,45.72
2022-09-06T10:09:30.703Z,47.49
2022-09-06T10:10:30.691Z,47.07
2022-09-06T10:11:30.692Z,46.85
2022-09-06T10:12:30.668Z,45.85
2022-09-06T10:13:30.687Z,45.63
2022-09-06T10:14:30.642Z,45.61
2022-09-06T10:15:30.642Z,43.45
2022-09-06T10:16:30.670Z,44.74
2022-09-06T10:17:30.608Z,45.26
2022-09-06T10:18:30.618Z,45.65
2022-09-06T10:19:30.592Z,45.73
2022-09-06T10:20:30.586Z,45.90
2022-09-06T10:21:30.587Z,45.19
2022-09-06T10:22:30.573Z,44.29
2022-09-06T10:24:31.544Z,43.38
2022-09-06T10:25:30.534Z,42.97
2022-09-06T10:26:30.511Z,42.70
2022-09-06T10:27:30.510Z,44.07
2022-09-06T10:28:30.513Z,43.58
2022-09-06T10:29:30.499Z,43.88
2022-09-06T10:30:30.476Z,43.23
2022-09-06T10:31:30.541Z,44.41
2022-09-06T10:32:31.216Z,42.74
2022-09-06T10:33:30.457Z,44.55
2022-09-06T10:34:30.427Z,43.76
2022-09-06T10:35:30.431Z,44.35
2022-09-06T10:36:30.408Z,44.57
2022-09-06T10:37:30.398Z,45.43
2022-09-06T10:38:30.405Z,44.65
2022-09-06T10:39:30.409Z,45.14
2022-09-06T10:40:30.370Z,44.74
2022-09-06T10:41:30.353Z,45.92
2022-09-06T10:42:30.347Z,44.92
2022-09-06T10:43:30.375Z,43.72
2022-09-06T10:44:30.328Z,44.38
2022-09-06T10:45:30.317Z,43.02
2022-09-06T10:46:30.417Z,43.43
2022-09-06T10:47:30.296Z,43.13
2022-09-06T10:48:30.486Z,45.21
2022-09-06T10:49:30.275Z,45.21
2022-09-06T10:50:30.260Z,44.45
2022-09-06T10:51:30.259Z,45.16
2022-09-06T10:52:30.247Z,44.87
2022-09-06T10:53:30.240Z,44.96
2022-09-06T10:54:30.222Z,46.04
2022-09-06T10:55:30.213Z,45.06
2022-09-06T10:56:30.210Z,45.53
2022-09-06T11:00:30.158Z,44.80
2022-09-06T11:01:30.250Z,43.33
2022-09-06T11:02:30.346Z,43.99
2022-09-06T11:04:31.113Z,43.31
2022-09-06T11:06:31.094Z,45.09
2022-09-06T11:07:30.092Z,44.38
2022-09-06T11:09:31.066Z,43.48
2022-09-06T11:10:30.066Z,42.97
2022-09-06T11:11:30.073Z,42.68
2022-09-06T11:12:30.037Z,43.07
2022-09-06T11:13:30.046Z,42.97
2022-09-06T11:14:30.015Z,43.95
2022-09-06T11:15:30.000Z,43.17
2022-09-06T11:16:30.041Z,43.24
2022-09-06T11:17:29.987Z,43.03
2022-09-06T11:18:29.999Z,42.25
2022-09-06T11:19:29.960Z,42.22
2022-09-06T11:20:32.295Z,41.52
2022-09-06T11:21:29.934Z,41.99
2022-09-06T11:22:29.919Z,40.82
2022-09-06T11:23:30.062Z,40.89
2022-09-06T11:24:29.900Z,40.50
2022-09-06T11:25:29.894Z,40.80
2022-09-06T11:26:29.882Z,40.33
2022-09-06T11:27:29.875Z,40.72
2022-09-06T11:28:29.875Z,41.13
2022-09-06T11:29:29.853Z,41.82
2022-09-06T11:30:29.855Z,40.66
2022-09-06T11:32:30.837Z,42.35
2022-09-06T11:33:29.935Z,42.35
2022-09-06T11:34:29.791Z,41.35
2022-09-06T11:35:29.793Z,41.52
2022-09-06T11:36:29.775Z,42.11
2022-09-06T11:37:29.766Z,41.60
2022-09-06T11:38:29.766Z,41.38
2022-09-06T11:40:30.784Z,40.58
2022-09-06T11:41:29.723Z,40.76
2022-09-06T11:42:29.706Z,40.35
2022-09-06T11:43:29.709Z,40.06
2022-09-06T11:44:29.689Z,39.94
2022-09-06T11:45:29.689Z,38.85
2022-09-06T11:46:29.693Z,38.87
2022-09-06T11:47:29.670Z,38.87
2022-09-06T11:48:29.665Z,39.26
2022-09-06T11:49:29.658Z,38.69
2022-09-06T11:50:29.640Z,39.78
2022-09-06T11:51:29.631Z,39.59
2022-09-06T11:52:29.619Z,39.49
2022-09-06T11:53:29.790Z,40.86
2022-09-06T11:54:29.592Z,39.69
2022-09-06T11:55:29.585Z,40.83
2022-09-06T11:56:29.569Z,39.65
2022-09-06T11:57:29.551Z,39.45
2022-09-06T11:58:29.556Z,38.46
2022-09-06T11:59:29.551Z,39.51
2022-09-06T12:00:29.536Z,38.73
2022-09-06T12:01:29.532Z,39.78
2022-09-06T12:02:29.691Z,38.81
2022-09-06T12:04:30.494Z,37.24
2022-09-06T12:05:29.469Z,37.14
2022-09-06T12:06:29.463Z,37.14
2022-09-06T12:07:29.452Z,37.06
2022-09-06T12:08:29.620Z,38.44
2022-09-06T12:09:29.441Z,37.27
2022-09-06T12:10:29.426Z,38.65
2022-09-06T12:11:30.658Z,38.87
2022-09-06T12:12:29.392Z,39.86
2022-09-06T12:13:29.392Z,39.08
2022-09-06T12:14:29.400Z,39.29
2022-09-06T12:15:29.368Z,40.27
2022-09-06T12:16:29.410Z,39.70
2022-09-06T12:17:29.340Z,39.51
2022-09-06T12:18:29.420Z,40.70
2022-09-06T12:19:29.325Z,40.23
2022-09-06T12:20:29.326Z,40.01
2022-09-06T12:21:29.305Z,41.11
2022-09-06T12:22:29.300Z,40.53
2022-09-06T12:23:29.285Z,41.42
2022-09-06T12:24:29.272Z,42.19
2022-09-06T12:25:29.267Z,40.55
2022-09-06T12:26:29.256Z,41.33
2022-09-06T12:27:29.233Z,40.84
2022-09-06T12:28:29.392Z,42.13
2022-09-06T12:29:29.220Z,41.52
2022-09-06T12:30:29.229Z,41.99
2022-09-06T12:31:29.330Z,41.41
2022-09-06T12:32:31.630Z,40.41
2022-09-06T12:33:29.169Z,39.90
2022-09-06T12:34:29.179Z,39.88
2022-09-06T12:36:30.185Z,39.45
2022-09-06T12:37:29.133Z,39.92
2022-09-06T12:38:29.194Z,38.83
2022-09-06T12:39:29.195Z,39.29
2022-09-06T12:40:29.098Z,39.18
2022-09-06T12:41:29.106Z,38.70
2022-09-06T12:42:29.082Z,38.19
2022-09-06T12:43:29.076Z,37.51
2022-09-06T12:44:29.091Z,37.51
2022-09-06T12:45:29.045Z,37.41
2022-09-06T12:46:29.127Z,37.51
2022-09-06T12:47:29.025Z,38.01
2022-09-06T12:48:29.154Z,37.51
2022-09-06T12:49:29.008Z,36.83
2022-09-06T12:50:29.004Z,37.43
2022-09-06T12:51:28.996Z,38.11
2022-09-06T12:52:28.972Z,37.24
2022-09-06T12:53:28.965Z,37.43
2022-09-06T12:54:28.957Z,38.01
2022-09-06T12:55:28.940Z,37.92
2022-09-06T12:56:28.954Z,37.34
2022-09-06T12:57:28.928Z,37.80
2022-09-06T12:58:29.141Z,37.02
2022-09-06T12:59:28.895Z,37.82
2022-09-06T13:00:28.902Z,37.26
2022-09-06T13:01:29.016Z,37.85
2022-09-06T13:02:28.970Z,38.85
2022-09-06T13:03:28.857Z,39.43
2022-09-06T13:04:28.857Z,38.28
2022-09-06T13:05:28.836Z,38.59
2022-09-06T13:06:28.853Z,38.69
2022-09-06T13:07:28.812Z,38.61
2022-09-06T13:08:28.881Z,39.98
2022-09-06T13:09:28.799Z,40.08
2022-09-06T13:10:28.785Z,40.66
2022-09-06T13:11:28.871Z,40.37
2022-09-06T13:12:28.764Z,39.88
2022-09-06T13:13:28.784Z,39.70
2022-09-06T13:14:28.741Z,39.80
2022-09-06T13:15:28.773Z,40.09
2022-09-06T13:16:28.750Z,39.82
2022-09-06T13:17:28.711Z,40.21